createdAt,value
2015-11-06T00:00:07.307Z,7.1
2015-11-06T00:01:09.012Z,7.1
2015-11-06T00:02:07.469Z,7.1
2015-11-06T00:03:05.922Z,7.1
2015-11-06T00:04:04.393Z,7.1
2015-11-06T00:05:02.849Z,7.1
2015-11-06T00:06:01.587Z,7.1
2015-11-06T00:07:00.276Z,7.1
2015-11-06T00:07:58.998Z,7.1
2015-11-06T00:08:57.735Z,7.1
2015-11-06T00:09:56.487Z,7.1
2015-11-06T00:10:58.210Z,7.1
2015-11-06T00:11:56.931Z,7.1
2015-11-06T00:12:58.667Z,7.1
2015-11-06T00:13:54.359Z,7.1
2015-11-06T00:15:51.785Z,7.1
2015-11-06T00:16:50.507Z,7.1
2015-11-06T00:18:47.934Z,7.1
2015-11-06T00:19:46.702Z,7.1
2015-11-06T00:20:48.439Z,7.1
2015-11-06T00:21:47.145Z,7.1
2015-11-06T00:22:45.867Z,7.1
2015-11-06T00:23:44.604Z,7.1
2015-11-06T00:24:43.279Z,7.1
2015-11-06T00:26:40.722Z,7.1
2015-11-06T00:27:39.458Z,7.1
2015-11-06T00:28:38.164Z,7.1
2015-11-06T00:29:36.917Z,7.1
2015-11-06T00:30:38.670Z,7.1
2015-11-06T00:31:37.360Z,7.1
2015-11-06T00:32:36.097Z,7.1
2015-11-06T00:34:33.525Z,7.1
2015-11-06T00:36:30.933Z,7.1
2015-11-06T00:37:29.655Z,7.1
2015-11-06T00:39:27.160Z,7.1
2015-11-06T00:40:28.882Z,7.1
2015-11-06T00:41:27.588Z,7.1
2015-11-06T00:42:29.340Z,7.1
2015-11-06T00:43:25.046Z,7.1
2015-11-06T00:44:23.752Z,7.1
2015-11-06T00:46:21.195Z,7.2
2015-11-06T00:47:19.885Z,7.1
2015-11-06T00:48:18.591Z,7.2
2015-11-06T00:49:17.375Z,7.2
2015-11-06T00:50:19.112Z,7.2
2015-11-06T00:51:18.068Z,7.2
2015-11-06T00:53:19.043Z,7.2
2015-11-06T00:54:14.982Z,7.2
2015-11-06T00:56:12.926Z,7.2
2015-11-06T00:57:11.912Z,7.2
2015-11-06T00:58:13.896Z,7.2
2015-11-06T00:59:12.945Z,7.2
2015-11-06T01:00:11.635Z,7.2
2015-11-06T01:01:10.592Z,7.2
2015-11-06T01:02:09.578Z,7.2
2015-11-06T01:03:08.535Z,7.2
2015-11-06T01:04:07.506Z,7.2
2015-11-06T01:05:09.508Z,7.2
2015-11-06T01:06:05.464Z,7.2
2015-11-06T01:07:04.421Z,7.3
2015-11-06T01:08:06.423Z,7.3
2015-11-06T01:09:02.410Z,7.3
2015-11-06T01:12:02.621Z,7.3
2015-11-06T01:13:01.842Z,7.3
2015-11-06T01:14:04.095Z,7.3
2015-11-06T01:15:00.285Z,7.3
2015-11-06T01:16:58.741Z,7.3
2015-11-06T01:17:57.963Z,7.3
2015-11-06T01:19:00.296Z,7.3
2015-11-06T01:19:58.984Z,7.3
2015-11-06T01:20:58.221Z,7.3
2015-11-06T01:21:57.442Z,7.3
2015-11-06T01:23:00.008Z,7.3
2015-11-06T01:25:54.376Z,7.3
2015-11-06T01:27:55.849Z,7.4
2015-11-06T01:28:52.103Z,7.4
2015-11-06T01:30:53.060Z,7.4
2015-11-06T01:31:52.298Z,7.4
2015-11-06T01:32:51.519Z,7.4
2015-11-06T01:33:53.804Z,7.4
2015-11-06T01:34:49.994Z,7.4
2015-11-06T01:36:51.467Z,7.5
2015-11-06T01:37:47.689Z,7.5
2015-11-06T01:39:48.694Z,7.5
2015-11-06T01:40:47.931Z,7.5
2015-11-06T01:41:47.138Z,7.5
2015-11-06T01:42:46.375Z,7.5
2015-11-06T01:43:45.596Z,7.5
2015-11-06T01:44:47.849Z,7.5
2015-11-06T01:45:44.054Z,7.6
2015-11-06T01:46:43.291Z,7.6
2015-11-06T01:47:42.513Z,7.6
2015-11-06T01:48:41.813Z,7.6
2015-11-06T01:49:43.535Z,7.6
2015-11-06T01:50:42.756Z,7.6
2015-11-06T01:51:45.008Z,7.6
2015-11-06T01:52:41.230Z,7.7
2015-11-06T01:53:40.701Z,7.7
2015-11-06T01:54:39.923Z,7.7
2015-11-06T01:55:42.176Z,7.7
2015-11-06T01:56:38.382Z,7.7
2015-11-06T01:57:37.884Z,7.7
2015-11-06T01:58:37.402Z,7.7
2015-11-06T01:59:39.140Z,7.7
2015-11-06T02:00:38.627Z,7.7
2015-11-06T02:01:38.129Z,7.7
2015-11-06T02:02:37.616Z,7.7
2015-11-06T02:03:37.073Z,7.8
2015-11-06T02:04:36.560Z,7.8
2015-11-06T02:06:35.532Z,7.8
2015-11-06T02:07:35.002Z,7.8
2015-11-06T02:08:34.551Z,7.8
2015-11-06T02:10:35.776Z,7.8
2015-11-06T02:11:35.248Z,7.9
2015-11-06T02:12:34.720Z,7.9
2015-11-06T02:13:34.207Z,7.9
2015-11-06T02:14:33.693Z,7.9
2015-11-06T02:16:32.901Z,7.9
2015-11-06T02:17:32.420Z,7.9
2015-11-06T02:19:33.926Z,7.9
2015-11-06T02:20:33.662Z,7.9
2015-11-06T02:21:34.837Z,8
2015-11-06T02:22:34.575Z,8
2015-11-06T02:23:32.921Z,8
2015-11-06T02:25:33.801Z,8
2015-11-06T02:26:32.117Z,8
2015-11-06T02:27:31.588Z,8
2015-11-06T02:28:31.388Z,8
2015-11-06T02:29:33.141Z,8
2015-11-06T02:31:32.631Z,8.1
2015-11-06T02:32:32.336Z,8.1
2015-11-06T02:33:32.088Z,8.1
2015-11-06T02:34:31.811Z,8.1
2015-11-06T02:35:32.969Z,8.1
2015-11-06T02:36:31.300Z,8.1
2015-11-06T02:38:32.243Z,8.1
2015-11-06T02:39:32.574Z,8.1
2015-11-06T02:40:32.296Z,8.1
2015-11-06T02:41:33.454Z,8.1
2015-11-06T02:42:31.801Z,8.1
2015-11-06T02:43:31.507Z,8.1
2015-11-06T02:44:31.243Z,8.1
2015-11-06T02:45:30.980Z,8.2
2015-11-06T02:46:30.718Z,8.2
2015-11-06T02:47:30.455Z,8.2
2015-11-06T02:48:30.255Z,8.2
2015-11-06T02:49:31.992Z,8.2
2015-11-06T02:50:31.729Z,8.2
2015-11-06T02:51:31.465Z,8.2
2015-11-06T02:52:31.218Z,8.3
2015-11-06T02:53:30.941Z,8.3
2015-11-06T02:54:30.693Z,8.3
2015-11-06T02:56:31.557Z,8.3
2015-11-06T02:57:29.888Z,8.3
2015-11-06T02:58:29.688Z,8.3
2015-11-06T02:59:31.425Z,8.3
2015-11-06T03:00:31.146Z,8.3
2015-11-06T03:01:30.884Z,8.3
2015-11-06T03:02:30.621Z,8.4
2015-11-06T03:03:30.374Z,8.3
2015-11-06T03:04:31.501Z,8.3
2015-11-06T03:05:31.254Z,8.4
2015-11-06T03:06:29.570Z,8.4
2015-11-06T03:07:29.307Z,8.4
2015-11-06T03:08:29.106Z,8.4
2015-11-06T03:09:30.843Z,8.4
2015-11-06T03:10:30.564Z,8.4
2015-11-06T03:11:30.301Z,8.4
2015-11-06T03:12:30.039Z,8.4
2015-11-06T03:13:29.776Z,8.4
2015-11-06T03:14:29.261Z,8.4
2015-11-06T03:15:28.731Z,8.5
2015-11-06T03:16:28.484Z,8.5
2015-11-06T03:17:27.940Z,8.5
2015-11-06T03:19:29.212Z,8.5
2015-11-06T03:20:28.698Z,8.5
2015-11-06T03:21:29.858Z,8.5
2015-11-06T03:22:29.328Z,8.5
2015-11-06T03:23:30.425Z,8.5
2015-11-06T03:24:26.866Z,8.5
2015-11-06T03:25:26.353Z,8.5
2015-11-06T03:26:25.824Z,8.5
2015-11-06T03:28:24.845Z,8.5
2015-11-06T03:29:26.597Z,8.5
2015-11-06T03:30:26.070Z,8.5
2015-11-06T03:31:25.525Z,8.5
2015-11-06T03:32:25.013Z,8.5
2015-11-06T03:33:24.499Z,8.5
2015-11-06T03:34:23.971Z,8.5
2015-11-06T03:36:25.961Z,8.5
2015-11-06T03:37:22.432Z,8.5
2015-11-06T03:38:21.951Z,8.5
2015-11-06T03:39:23.688Z,8.5
2015-11-06T03:40:23.144Z,8.5
2015-11-06T03:41:22.630Z,8.5
2015-11-06T03:43:24.621Z,8.5
2015-11-06T03:44:21.061Z,8.5
2015-11-06T03:45:20.298Z,8.5
2015-11-06T03:46:19.754Z,8.5
2015-11-06T03:47:18.976Z,8.5
2015-11-06T03:48:18.524Z,8.5
2015-11-06T03:49:20.262Z,8.6
2015-11-06T03:50:19.733Z,8.6
2015-11-06T03:51:19.204Z,8.6
2015-11-06T03:53:17.898Z,8.6
2015-11-06T03:54:17.120Z,8.6
2015-11-06T03:55:19.380Z,8.6
2015-11-06T03:56:15.542Z,8.6
2015-11-06T03:57:14.766Z,8.6
2015-11-06T03:58:17.052Z,8.7
2015-11-06T03:59:15.730Z,8.7
2015-11-06T04:00:14.960Z,8.7
2015-11-06T04:01:14.161Z,8.6
2015-11-06T04:02:13.395Z,8.7
2015-11-06T04:03:12.596Z,8.7
2015-11-06T04:04:14.845Z,8.7
2015-11-06T04:05:14.079Z,8.7
2015-11-06T04:06:10.268Z,8.7
2015-11-06T04:07:09.482Z,8.7
2015-11-06T04:08:08.763Z,8.7
2015-11-06T04:09:10.484Z,8.7
2015-11-06T04:10:09.687Z,8.7
2015-11-06T04:12:11.160Z,8.7
2015-11-06T04:13:07.349Z,8.7
2015-11-06T04:14:06.586Z,8.7
2015-11-06T04:15:05.790Z,8.8
2015-11-06T04:16:05.012Z,8.8
2015-11-06T04:17:04.249Z,8.8
2015-11-06T04:18:03.501Z,8.8
2015-11-06T04:19:05.238Z,8.8
2015-11-06T04:20:04.443Z,8.8
2015-11-06T04:22:05.917Z,8.8
2015-11-06T04:23:02.107Z,8.8
2015-11-06T04:24:01.329Z,8.8
2015-11-06T04:25:00.535Z,8.8
2015-11-06T04:25:59.756Z,8.9
2015-11-06T04:27:02.025Z,8.8
2015-11-06T04:27:58.246Z,8.9
2015-11-06T04:28:59.984Z,8.9
2015-11-06T04:29:59.189Z,8.9
2015-11-06T04:30:58.411Z,8.9
2015-11-06T04:31:57.632Z,8.9
2015-11-06T04:32:56.884Z,8.9
2015-11-06T04:33:59.106Z,8.9
2015-11-06T04:34:55.280Z,8.9
2015-11-06T04:35:54.503Z,8.9
2015-11-06T04:36:53.723Z,8.9
2015-11-06T04:38:54.728Z,8.9
2015-11-06T04:40:53.156Z,8.9
2015-11-06T04:41:52.393Z,8.9
2015-11-06T04:43:50.821Z,8.9
2015-11-06T04:44:50.027Z,8.9
2015-11-06T04:45:52.279Z,9
2015-11-06T04:46:48.486Z,8.9
2015-11-06T04:48:49.460Z,8.9
2015-11-06T04:50:50.699Z,9
2015-11-06T04:51:46.605Z,9
2015-11-06T04:52:45.827Z,9
2015-11-06T04:53:44.799Z,9
2015-11-06T04:54:43.770Z,9
2015-11-06T04:55:45.741Z,9
2015-11-06T04:56:41.682Z,9
2015-11-06T04:58:42.422Z,9
2015-11-06T04:59:41.393Z,9
2015-11-06T05:00:40.333Z,9
2015-11-06T05:01:39.288Z,9
2015-11-06T05:02:38.260Z,9
2015-11-06T05:03:37.215Z,9
2015-11-06T05:04:39.204Z,9
2015-11-06T05:06:34.099Z,9.1
2015-11-06T05:07:33.118Z,9.1
2015-11-06T05:08:34.855Z,9.1
2015-11-06T05:09:33.810Z,9.1
2015-11-06T05:10:32.501Z,9.1
2015-11-06T05:11:31.472Z,9.1
2015-11-06T05:12:30.429Z,9.1
2015-11-06T05:13:29.384Z,9.1
2015-11-06T05:14:28.090Z,9.1
2015-11-06T05:15:26.795Z,9.1
2015-11-06T05:16:25.501Z,9.1
2015-11-06T05:17:24.269Z,9.1
2015-11-06T05:18:25.991Z,9.1
2015-11-06T05:19:24.901Z,9.1
2015-11-06T05:21:22.108Z,9.1
2015-11-06T05:24:18.225Z,9.1
2015-11-06T05:25:16.916Z,9.1
2015-11-06T05:26:15.622Z,9.1
2015-11-06T05:27:14.391Z,9.1
2015-11-06T05:28:16.112Z,9.1
2015-11-06T05:29:15.021Z,9.1
2015-11-06T05:30:13.524Z,9.2
2015-11-06T05:31:12.245Z,9.1
2015-11-06T05:32:10.933Z,9.2
2015-11-06T05:33:09.639Z,9.1
2015-11-06T05:34:08.360Z,9.2
2015-11-06T05:35:07.066Z,9.2
2015-11-06T05:36:05.741Z,9.2
2015-11-06T05:37:04.509Z,9.2
2015-11-06T05:38:06.231Z,9.2
2015-11-06T05:39:04.936Z,9.2
2015-11-06T05:40:03.642Z,9.2
2015-11-06T05:42:01.054Z,9.2
2015-11-06T05:42:59.760Z,9.2
2015-11-06T05:44:57.155Z,9.2
2015-11-06T05:45:55.878Z,9.2
2015-11-06T05:46:57.661Z,9.2
2015-11-06T05:47:56.352Z,9.2
2015-11-06T05:48:55.057Z,9.3
2015-11-06T05:49:53.763Z,9.2
2015-11-06T05:50:52.469Z,9.2
2015-11-06T05:51:51.206Z,9.2
2015-11-06T05:52:49.881Z,9.2
2015-11-06T05:53:48.571Z,9.2
2015-11-06T05:54:47.292Z,9.2
2015-11-06T05:55:45.983Z,9.2
2015-11-06T05:56:44.767Z,9.2
2015-11-06T05:57:46.488Z,9.2
2015-11-06T05:58:45.179Z,9.2
2015-11-06T05:59:43.901Z,9.2
2015-11-06T06:00:42.590Z,9.2
2015-11-06T06:02:39.986Z,9.2
2015-11-06T06:03:38.692Z,9.2
2015-11-06T06:04:37.395Z,9.3
2015-11-06T06:05:36.100Z,9.3
2015-11-06T06:06:34.870Z,9.3
2015-11-06T06:07:36.606Z,9.3
2015-11-06T06:08:35.281Z,9.3
2015-11-06T06:09:33.987Z,9.2
2015-11-06T06:10:32.693Z,9.3
2015-11-06T06:11:31.398Z,9.3
2015-11-06T06:12:30.103Z,9.3
2015-11-06T06:13:28.794Z,9.3
2015-11-06T06:14:27.516Z,9.3
2015-11-06T06:15:26.222Z,9.3
2015-11-06T06:16:24.975Z,9.3
2015-11-06T06:17:26.711Z,9.3
2015-11-06T06:18:25.417Z,9.3
2015-11-06T06:19:24.123Z,9.3
2015-11-06T06:20:22.813Z,9.3
2015-11-06T06:21:21.519Z,9.3
2015-11-06T06:22:20.225Z,9.3
2015-11-06T06:23:18.931Z,9.3
2015-11-06T06:24:17.636Z,9.3
2015-11-06T06:25:16.328Z,9.3
2015-11-06T06:26:15.111Z,9.3
2015-11-06T06:27:16.817Z,9.3
2015-11-06T06:29:14.229Z,9.3
2015-11-06T06:30:12.935Z,9.3
2015-11-06T06:32:10.347Z,9.3
2015-11-06T06:33:09.052Z,9.3
2015-11-06T06:34:07.758Z,9.3
2015-11-06T06:35:06.448Z,9.3
2015-11-06T06:36:05.216Z,9.3
2015-11-06T06:37:06.938Z,9.3
2015-11-06T06:38:05.644Z,9.3
2015-11-06T06:39:04.350Z,9.3
2015-11-06T06:40:03.053Z,9.3
2015-11-06T06:41:01.759Z,9.3
2015-11-06T06:42:00.449Z,9.3
2015-11-06T06:42:59.171Z,9.3
2015-11-06T06:43:57.610Z,9.3
2015-11-06T06:44:56.051Z,9.3
2015-11-06T06:46:56.900Z,9.3
2015-11-06T06:47:54.996Z,9.3
2015-11-06T06:48:53.437Z,9.3
2015-11-06T06:49:52.143Z,9.3
2015-11-06T06:51:49.305Z,9.3
2015-11-06T06:52:47.759Z,9.3
2015-11-06T06:54:44.906Z,9.3
2015-11-06T06:55:43.659Z,9.4
2015-11-06T06:56:45.401Z,9.4
2015-11-06T06:57:44.295Z,9.4
2015-11-06T06:58:42.798Z,9.4
2015-11-06T07:01:38.664Z,9.4
2015-11-06T07:02:37.370Z,9.4
2015-11-06T07:03:36.076Z,9.4
2015-11-06T07:05:36.581Z,9.5
2015-11-06T07:06:35.256Z,9.5
2015-11-06T07:09:31.374Z,9.5
2015-11-06T07:10:29.842Z,9.5
2015-11-06T07:11:28.533Z,9.5
2015-11-06T07:12:26.989Z,9.5
2015-11-06T07:13:25.679Z,9.5
2015-11-06T07:15:22.887Z,9.6
2015-11-06T07:16:24.609Z,9.5
2015-11-06T07:17:23.066Z,9.5
2015-11-06T07:18:21.505Z,9.6
2015-11-06T07:19:19.960Z,9.6
2015-11-06T07:22:15.302Z,9.6
2015-11-06T07:23:13.743Z,9.7
2015-11-06T07:24:12.198Z,9.6
2015-11-06T07:26:13.032Z,9.7
2015-11-06T07:27:14.706Z,9.7
2015-11-06T07:28:13.146Z,9.7
2015-11-06T07:29:15.446Z,9.7
2015-11-06T07:30:17.746Z,9.7
2015-11-06T07:31:20.030Z,9.7
2015-11-06T07:32:22.329Z,9.7
2015-11-06T07:33:24.644Z,9.7
2015-11-06T07:34:26.928Z,9.7
2015-11-06T07:35:29.259Z,9.7
2015-11-06T07:36:30.996Z,9.8
2015-11-06T07:37:33.280Z,9.8
2015-11-06T07:38:35.581Z,9.8
2015-11-06T07:39:37.864Z,9.8
2015-11-06T07:40:40.179Z,9.8
2015-11-06T07:41:42.464Z,9.9
2015-11-06T07:42:44.747Z,9.9
2015-11-06T07:45:51.744Z,9.9
2015-11-06T07:46:53.418Z,9.9
2015-11-06T07:47:55.687Z,9.9
2015-11-06T07:48:57.986Z,10
2015-11-06T07:50:00.271Z,10
2015-11-06T07:51:02.571Z,10
2015-11-06T07:52:04.904Z,10
2015-11-06T07:53:07.157Z,10.1
2015-11-06T07:54:09.424Z,10.1
2015-11-06T07:55:11.740Z,10.1
2015-11-06T07:56:14.070Z,10.1
2015-11-06T07:57:15.808Z,10.1
2015-11-06T07:58:18.076Z,10.1
2015-11-06T07:59:20.391Z,10.1
2015-11-06T08:00:22.664Z,10.1
2015-11-06T08:01:24.963Z,10.2
2015-11-06T08:02:27.231Z,10.2
2015-11-06T08:03:29.530Z,10.2
2015-11-06T08:04:31.815Z,10.3
2015-11-06T08:05:34.099Z,10.3
2015-11-06T08:06:36.446Z,10.3
2015-11-06T08:07:38.182Z,10.3
2015-11-06T08:08:40.452Z,10.3
2015-11-06T08:09:42.750Z,10.4
2015-11-06T08:10:44.785Z,10.4
2015-11-06T08:11:46.818Z,10.4
2015-11-06T08:12:48.853Z,10.4
2015-11-06T08:13:50.886Z,10.5
2015-11-06T08:14:52.921Z,10.5
2015-11-06T08:15:54.705Z,10.5
2015-11-06T08:16:56.535Z,10.5
2015-11-06T08:17:58.241Z,10.6
2015-11-06T08:19:00.025Z,10.6
2015-11-06T08:20:01.810Z,10.7
2015-11-06T08:21:03.562Z,10.7
2015-11-06T08:22:05.345Z,10.8
2015-11-06T08:23:07.129Z,10.8
2015-11-06T08:24:08.898Z,10.9
2015-11-06T08:25:10.682Z,10.9
2015-11-06T08:26:12.451Z,10.9
2015-11-06T08:27:14.282Z,10.9
2015-11-06T08:28:16.004Z,11
2015-11-06T08:29:17.506Z,11
2015-11-06T08:30:18.773Z,11.1
2015-11-06T08:31:20.027Z,11.1
2015-11-06T08:32:21.279Z,11.1
2015-11-06T08:33:22.547Z,11.2
2015-11-06T08:34:23.801Z,11.3
2015-11-06T08:35:25.053Z,11.3
2015-11-06T08:36:26.321Z,11.3
2015-11-06T08:37:27.637Z,11.4
2015-11-06T08:38:29.342Z,11.5
2015-11-06T08:39:30.361Z,11.5
2015-11-06T08:40:31.363Z,11.6
2015-11-06T08:41:32.366Z,11.7
2015-11-06T08:42:33.103Z,11.7
2015-11-06T08:43:33.856Z,11.8
2015-11-06T08:44:34.593Z,11.8
2015-11-06T08:45:35.080Z,11.9
2015-11-06T08:46:35.567Z,11.9
2015-11-06T08:47:35.850Z,11.9
2015-11-06T08:48:37.557Z,12
2015-11-06T08:49:37.794Z,12
2015-11-06T08:50:37.766Z,12.1
2015-11-06T08:51:37.753Z,12.1
2015-11-06T08:52:37.474Z,12.1
2015-11-06T08:53:37.180Z,12.2
2015-11-06T08:54:36.886Z,12.2
2015-11-06T08:55:36.341Z,12.2
2015-11-06T08:56:35.814Z,12.3
2015-11-06T08:57:35.082Z,12.3
2015-11-06T08:58:36.803Z,12.3
2015-11-06T08:59:36.008Z,12.4
2015-11-06T09:00:34.950Z,12.5
2015-11-06T09:01:33.889Z,12.4
2015-11-06T09:02:32.830Z,12.5
2015-11-06T09:03:31.833Z,12.5
2015-11-06T09:04:30.726Z,12.5
2015-11-06T09:05:29.416Z,12.6
2015-11-06T09:06:28.138Z,12.6
2015-11-06T09:07:26.843Z,12.6
2015-11-06T09:08:28.580Z,12.7
2015-11-06T09:09:27.255Z,12.6
2015-11-06T09:10:25.680Z,12.7
2015-11-06T09:11:24.151Z,12.7
2015-11-06T09:12:22.544Z,12.7
2015-11-06T09:13:24.844Z,12.8
2015-11-06T09:14:27.096Z,12.8
2015-11-06T09:15:29.381Z,12.8
2015-11-06T09:16:31.649Z,12.8
2015-11-06T09:17:33.980Z,12.9
2015-11-06T09:18:35.685Z,12.9
2015-11-06T09:19:37.704Z,12.9
2015-11-06T09:20:39.722Z,12.9
2015-11-06T09:21:41.741Z,12.9
2015-11-06T09:22:43.759Z,12.9
2015-11-06T09:23:45.528Z,13
2015-11-06T09:24:47.281Z,13
2015-11-06T09:25:49.048Z,13
2015-11-06T09:26:50.801Z,13.1
2015-11-06T09:27:52.367Z,13.1
2015-11-06T09:28:54.073Z,13.1
2015-11-06T09:29:55.591Z,13.2
2015-11-06T09:30:57.078Z,13.2
2015-11-06T09:31:58.330Z,13.2
2015-11-06T09:32:59.584Z,13.2
2015-11-06T09:34:00.837Z,13.2
2015-11-06T09:35:01.839Z,13.3
2015-11-06T09:36:02.825Z,13.3
2015-11-06T09:37:03.813Z,13.3
2015-11-06T09:38:04.862Z,13.3
2015-11-06T09:39:06.584Z,13.3
2015-11-06T09:40:07.306Z,13.3
2015-11-06T09:41:08.058Z,13.4
2015-11-06T09:42:08.530Z,13.4
2015-11-06T09:43:09.001Z,13.5
2015-11-06T09:44:09.488Z,13.5
2015-11-06T09:45:09.960Z,13.5
2015-11-06T09:46:10.446Z,13.5
2015-11-06T09:47:10.919Z,13.5
2015-11-06T09:48:11.452Z,13.5
2015-11-06T09:49:13.158Z,13.5
2015-11-06T09:50:13.629Z,13.6
2015-11-06T09:51:14.133Z,13.5
2015-11-06T09:52:14.588Z,13.6
2015-11-06T09:53:14.809Z,13.6
2015-11-06T09:54:15.031Z,13.7
2015-11-06T09:55:15.268Z,13.7
2015-11-06T09:56:15.474Z,13.7
2015-11-06T09:57:15.727Z,13.7
2015-11-06T09:58:15.996Z,13.7
2015-11-06T09:59:17.685Z,13.7
2015-11-06T10:00:17.907Z,13.8
2015-11-06T10:01:17.879Z,13.8
2015-11-06T10:02:17.865Z,13.8
2015-11-06T10:03:17.805Z,13.8
2015-11-06T10:04:17.761Z,13.9
2015-11-06T10:05:17.733Z,13.9
2015-11-06T10:06:17.438Z,13.9
2015-11-06T10:07:17.145Z,13.9
2015-11-06T10:08:16.929Z,14
2015-11-06T10:09:18.635Z,14
2015-11-06T10:10:18.340Z,14.1
2015-11-06T10:11:18.046Z,14.1
2015-11-06T10:12:17.752Z,14.1
2015-11-06T10:13:17.457Z,14.1
2015-11-06T10:14:16.929Z,14.1
2015-11-06T10:15:16.369Z,14.2
2015-11-06T10:16:15.810Z,14.2
2015-11-06T10:17:15.265Z,14.2
2015-11-06T10:18:14.518Z,14.2
2015-11-06T10:19:16.209Z,14.3
2015-11-06T10:20:15.431Z,14.3
2015-11-06T10:21:14.604Z,14.3
2015-11-06T10:22:13.811Z,14.3
2015-11-06T10:23:13.016Z,14.4
2015-11-06T10:24:12.176Z,14.4
2015-11-06T10:25:11.131Z,14.4
2015-11-06T10:26:12.837Z,14.4
2015-11-06T10:28:07.215Z,14.4
2015-11-06T10:29:08.905Z,14.5
2015-11-06T10:30:07.600Z,14.4
2015-11-06T10:32:04.699Z,14.5
2015-11-06T10:33:03.124Z,14.5
2015-11-06T10:34:01.564Z,14.5
2015-11-06T10:34:59.973Z,14.5
2015-11-06T10:35:58.413Z,14.5
2015-11-06T10:37:00.666Z,14.5
2015-11-06T10:37:59.169Z,14.6
2015-11-06T10:39:00.860Z,14.6
2015-11-06T10:40:03.127Z,14.6
2015-11-06T10:41:05.396Z,14.6
2015-11-06T10:42:07.663Z,14.5
2015-11-06T10:43:09.933Z,14.6
2015-11-06T10:44:12.201Z,14.5
2015-11-06T10:45:14.484Z,14.5
2015-11-06T10:46:16.737Z,14.5
2015-11-06T10:47:18.756Z,14.6
2015-11-06T10:48:20.821Z,14.6
2015-11-06T10:49:22.526Z,14.6
2015-11-06T10:50:24.529Z,14.6
2015-11-06T10:51:26.532Z,14.6
2015-11-06T10:52:28.554Z,14.7
2015-11-06T10:53:30.587Z,14.7
2015-11-06T10:54:32.309Z,14.7
2015-11-06T10:55:33.812Z,14.7
2015-11-06T10:56:35.580Z,14.7
2015-11-06T10:57:37.332Z,14.7
2015-11-06T10:58:38.882Z,14.7
2015-11-06T10:59:40.572Z,14.7
2015-11-06T11:00:41.825Z,14.8
2015-11-06T11:01:43.062Z,14.8
2015-11-06T11:02:44.299Z,14.8
2015-11-06T11:03:45.552Z,14.9
2015-11-06T11:04:46.789Z,14.9
2015-11-06T11:05:48.042Z,14.9
2015-11-06T11:06:49.288Z,14.9
2015-11-06T11:07:50.274Z,14.9
2015-11-06T11:08:51.309Z,14.9
2015-11-06T11:09:52.998Z,14.9
2015-11-06T11:10:53.737Z,15
2015-11-06T11:11:54.457Z,15
2015-11-06T11:12:55.195Z,15
2015-11-06T11:13:55.932Z,15
2015-11-06T11:15:57.375Z,15
2015-11-06T11:16:57.846Z,15
2015-11-06T11:17:58.317Z,15.1
2015-11-06T11:18:58.836Z,15.1
2015-11-06T11:20:00.573Z,15
2015-11-06T11:21:01.028Z,15.1
2015-11-06T11:22:01.500Z,15
2015-11-06T11:23:01.973Z,15.1
2015-11-06T11:24:02.459Z,15.1
2015-11-06T11:25:02.914Z,15.1
2015-11-06T11:26:03.403Z,15.1
2015-11-06T11:27:03.873Z,15.1
2015-11-06T11:28:04.079Z,15.1
2015-11-06T11:29:04.364Z,15.2
2015-11-06T11:30:06.070Z,15.1
2015-11-06T11:31:06.259Z,15.1
2015-11-06T11:32:06.481Z,15.2
2015-11-06T11:33:06.717Z,15.2
2015-11-06T11:34:07.127Z,15.2
2015-11-06T11:35:07.161Z,15.2
2015-11-06T11:37:07.775Z,15.2
2015-11-06T11:38:07.794Z,15.2
2015-11-06T11:39:08.063Z,15.3
2015-11-06T11:40:09.768Z,15.2
2015-11-06T11:41:09.989Z,15.3
2015-11-06T11:42:10.227Z,15.3
2015-11-06T11:43:10.416Z,15.3
2015-11-06T11:44:10.404Z,15.3
2015-11-06T11:46:10.922Z,15.3
2015-11-06T11:48:11.647Z,15.3
2015-11-06T11:49:10.258Z,15.4
2015-11-06T11:50:11.965Z,15.4
2015-11-06T11:51:11.936Z,15.5
2015-11-06T11:52:11.626Z,15.4
2015-11-06T11:53:11.348Z,15.5
2015-11-06T11:55:10.728Z,15.5
2015-11-06T11:57:11.577Z,15.5
2015-11-06T11:58:09.612Z,15.5
2015-11-06T11:59:09.115Z,15.5
2015-11-06T12:00:10.804Z,15.5
2015-11-06T12:01:10.510Z,15.6
2015-11-06T12:02:09.966Z,15.6
2015-11-06T12:03:09.406Z,15.6
2015-11-06T12:04:08.612Z,15.6
2015-11-06T12:05:11.068Z,15.7
2015-11-06T12:06:07.493Z,15.7
2015-11-06T12:08:05.873Z,15.6
2015-11-06T12:09:05.110Z,15.7
2015-11-06T12:10:06.816Z,15.7
2015-11-06T12:12:08.478Z,15.7
2015-11-06T12:14:03.843Z,15.7
2015-11-06T12:15:03.267Z,15.7
2015-11-06T12:16:05.504Z,15.7
2015-11-06T12:17:01.648Z,15.7
2015-11-06T12:19:00.106Z,15.7
2015-11-06T12:20:01.780Z,15.7
2015-11-06T12:21:00.971Z,15.7
2015-11-06T12:22:59.383Z,15.7
2015-11-06T12:25:00.764Z,15.7
2015-11-06T12:25:56.922Z,15.7
2015-11-06T12:26:56.112Z,15.7
2015-11-06T12:27:55.334Z,15.7
2015-11-06T12:28:54.572Z,15.7
2015-11-06T12:29:56.245Z,15.7
2015-11-06T12:30:55.466Z,15.7
2015-11-06T12:31:57.657Z,15.7
2015-11-06T12:32:56.863Z,15.7
2015-11-06T12:33:53.022Z,15.6
2015-11-06T12:34:52.213Z,15.6
2015-11-06T12:35:51.418Z,15.6
2015-11-06T12:36:50.327Z,15.6
2015-11-06T12:37:52.299Z,15.6
2015-11-06T12:38:48.517Z,15.7
2015-11-06T12:39:50.226Z,15.7
2015-11-06T12:40:49.397Z,15.7
2015-11-06T12:41:48.588Z,15.6
2015-11-06T12:42:47.528Z,15.7
2015-11-06T12:43:46.453Z,15.7
2015-11-06T12:44:45.393Z,15.6
2015-11-06T12:45:44.333Z,15.6
2015-11-06T12:46:43.257Z,15.7
2015-11-06T12:47:42.198Z,15.7
2015-11-06T12:48:41.435Z,15.7
2015-11-06T12:49:43.126Z,15.7
2015-11-06T12:50:42.316Z,15.7
2015-11-06T12:51:41.506Z,15.7
2015-11-06T12:52:40.696Z,15.7
2015-11-06T12:53:39.902Z,15.7
2015-11-06T12:54:38.826Z,15.7
2015-11-06T12:55:37.782Z,15.7
2015-11-06T12:56:36.691Z,15.8
2015-11-06T12:57:35.397Z,15.8
2015-11-06T12:58:34.103Z,15.7
2015-11-06T12:59:35.824Z,15.7
2015-11-06T13:02:31.559Z,15.8
2015-11-06T13:03:30.220Z,15.7
2015-11-06T13:05:27.588Z,15.8
2015-11-06T13:06:26.224Z,15.8
2015-11-06T13:08:23.609Z,15.8
2015-11-06T13:09:25.326Z,15.8
2015-11-06T13:10:24.340Z,15.8
2015-11-06T13:11:22.402Z,15.7
2015-11-06T13:12:21.091Z,15.8
2015-11-06T13:14:18.169Z,15.7
2015-11-06T13:15:16.843Z,15.7
2015-11-06T13:18:12.676Z,15.7
2015-11-06T13:19:14.365Z,15.7
2015-11-06T13:20:13.055Z,15.7
2015-11-06T13:22:10.402Z,15.6
2015-11-06T13:23:08.827Z,15.6
2015-11-06T13:24:07.236Z,15.6
2015-11-06T13:25:05.942Z,15.6
2015-11-06T13:27:03.275Z,15.7
2015-11-06T13:28:02.262Z,15.7
2015-11-06T13:29:03.952Z,15.7
2015-11-06T13:30:02.908Z,15.7
2015-11-06T13:31:01.833Z,15.7
2015-11-06T13:32:03.803Z,15.7
2015-11-06T13:32:59.697Z,15.7
2015-11-06T13:33:58.622Z,15.7
2015-11-06T13:34:57.562Z,15.7
2015-11-06T13:35:56.502Z,15.7
2015-11-06T13:38:55.588Z,15.7
2015-11-06T13:40:52.953Z,15.7
2015-11-06T13:43:49.494Z,15.7
2015-11-06T13:44:48.418Z,15.7
2015-11-06T13:45:47.373Z,15.7
2015-11-06T13:46:46.548Z,15.7
2015-11-06T13:48:47.475Z,15.7
2015-11-06T13:49:46.697Z,15.7
2015-11-06T13:50:45.853Z,15.7
2015-11-06T13:51:45.044Z,15.7
2015-11-06T13:52:44.265Z,15.7
2015-11-06T13:53:43.424Z,15.7
2015-11-06T13:54:42.614Z,15.7
2015-11-06T13:55:41.804Z,15.7
2015-11-06T13:56:41.025Z,15.7
2015-11-06T13:58:42.203Z,15.7
2015-11-06T13:59:41.659Z,15.7
2015-11-06T14:01:43.570Z,15.7
2015-11-06T14:02:39.979Z,15.7
2015-11-06T14:03:39.420Z,15.7
2015-11-06T14:04:38.876Z,15.6
2015-11-06T14:05:38.316Z,15.7
2015-11-06T14:06:37.756Z,15.7
2015-11-06T14:07:37.259Z,15.7
2015-11-06T14:08:38.949Z,15.7
2015-11-06T14:09:38.654Z,15.7
2015-11-06T14:10:38.345Z,15.7
2015-11-06T14:11:39.473Z,15.7
2015-11-06T14:12:37.756Z,15.7
2015-11-06T14:13:40.510Z,15.6
2015-11-06T14:16:36.596Z,15.6
2015-11-06T14:17:36.317Z,15.6
2015-11-06T14:18:38.023Z,15.5
2015-11-06T14:19:37.979Z,15.5
2015-11-06T14:20:37.951Z,15.5
2015-11-06T14:21:38.156Z,15.5
2015-11-06T14:22:38.362Z,15.5
2015-11-06T14:23:38.600Z,15.5
2015-11-06T14:24:38.805Z,15.5
2015-11-06T14:25:39.011Z,15.5
2015-11-06T14:26:39.248Z,15.5
2015-11-06T14:27:39.750Z,15.5
2015-11-06T14:28:41.472Z,15.5
2015-11-06T14:29:41.943Z,15.5
2015-11-06T14:30:42.415Z,15.6
2015-11-06T14:31:42.871Z,15.6
2015-11-06T14:32:43.374Z,15.5
2015-11-06T14:33:43.829Z,15.5
2015-11-06T14:34:44.301Z,15.6
2015-11-06T14:36:45.243Z,15.5
2015-11-06T14:37:46.044Z,15.5
2015-11-06T14:38:47.718Z,15.5
2015-11-06T14:40:49.176Z,15.5
2015-11-06T14:42:50.651Z,15.5
2015-11-06T14:43:51.357Z,15.5
2015-11-06T14:45:53.081Z,15.5
2015-11-06T14:46:54.068Z,15.5
2015-11-06T14:47:55.123Z,15.5
2015-11-06T14:48:56.812Z,15.5
2015-11-06T14:49:58.050Z,15.4
2015-11-06T14:50:59.303Z,15.4
2015-11-06T14:53:01.809Z,15.4
2015-11-06T14:56:05.503Z,15.4
2015-11-06T14:57:06.757Z,15.4
2015-11-06T14:58:08.056Z,15.4
2015-11-06T15:00:10.999Z,15.4
2015-11-06T15:01:12.267Z,15.4
2015-11-06T15:02:13.489Z,15.4
2015-11-06T15:03:14.992Z,15.4
2015-11-06T15:04:16.510Z,15.4
2015-11-06T15:05:17.981Z,15.4
2015-11-06T15:06:19.484Z,15.4
2015-11-06T15:07:20.986Z,15.4
2015-11-06T15:08:22.537Z,15.4
2015-11-06T15:09:24.243Z,15.4
2015-11-06T15:10:25.761Z,15.4
2015-11-06T15:11:27.247Z,15.4
2015-11-06T15:12:28.766Z,15.4
2015-11-06T15:13:30.269Z,15.4
2015-11-06T15:14:31.772Z,15.4
2015-11-06T15:16:34.761Z,15.4
2015-11-06T15:18:37.814Z,15.3